Iberica Hav — C6YI3 — position and weather

sailwx.info

Track history (hours):
 
Tides and Currents Weather Stations Pressure Air Temp Water Temp Dewpoint Dewpoint Depression Visibility Wind Speed Wind Dir Waves Ship Positions

Iberica Hav

Last reported at 2014-Nov-01 07:31 UTC. Time now 2014-Nov-01 07:39 UTC.
Position N 53°36' E 000°23'.

Length 88 m; draft 3.8 m.

Type: Cargo ship. MMSI: 311034400.

Date/timePositionNaut miles runAvg speedWind from/ knotsBaromVisibWave heightAir tempDewpointWater temp
2014-Nov-01 07:31N 53°36' E 000°23'0 0.2
2014-Nov-01 06:32N 53°36' E 000°23'0 0.0
2014-Nov-01 05:29N 53°36' E 000°23'0 0.0
2014-Nov-01 04:23N 53°36' E 000°23'0 0.0
2014-Nov-01 03:32N 53°36' E 000°23'0 0.0
2014-Nov-01 02:32N 53°36' E 000°23'0 0.0
2014-Nov-01 01:32N 53°36' E 000°23'0 0.0
2014-Nov-01 00:23N 53°36' E 000°23'0 0.1
2014-Oct-31 23:05N 53°36' E 000°23'0 0.0
2014-Oct-31 22:26N 53°36' E 000°23'0 0.0
2014-Oct-31 21:29N 53°36' E 000°23'0 0.0
2014-Oct-31 20:29N 53°36' E 000°23'0 0.1
2014-Oct-31 19:29N 53°36' E 000°23'4 3.8
2014-Oct-31 18:33N 53°35' E 000°28'165 8.1
2014-Oct-30 22:11N 53°49' E 005°05'5 7.4
2014-Oct-30 21:33N 53°49' E 005°13'8 7.6
2014-Oct-30 20:34N 53°50' E 005°26'8 8.3
2014-Oct-30 19:34N 53°50' E 005°40'67 8.3
2014-Oct-30 11:33N 53°60' E 007°32'8 7.6
2014-Oct-30 10:33N 54°01' E 007°45'8 8.3
2014-Oct-30 09:33N 54°01' E 007°59'9 9.1
2014-Oct-30 08:33N 54°01' E 008°15'1211.7
2014-Oct-30 07:33N 53°58' E 008°34'1211.5
2014-Oct-30 06:33N 53°51' E 008°49'10 9.9
2014-Oct-30 05:34N 53°53' E 009°05'2 2.4
2014-Oct-30 04:33N 53°54' E 009°09'5 5.5
2014-Oct-30 03:33N 53°58' E 009°15'9 8.5
2014-Oct-30 02:33N 54°06' E 009°20'8 7.7
2014-Oct-30 01:33N 54°11' E 009°29'7 7.4
2014-Oct-30 00:33N 54°16' E 009°38'8 7.9
2014-Oct-29 23:33N 54°22' E 009°48'7 6.8
2014-Oct-29 22:33N 54°21' E 009°59'6 5.0
2014-Oct-29 21:28N 54°22' E 010°08'1 1.1
2014-Oct-29 20:33N 54°22' E 010°10'0 0.0
2014-Oct-29 19:33N 54°22' E 010°10'0 0.0
2014-Oct-29 18:33N 54°22' E 010°10'0 0.1
2014-Oct-29 17:34N 54°22' E 010°10'0 0.1
2014-Oct-29 16:32N 54°22' E 010°10'5 4.2
2014-Oct-29 15:20N 54°27' E 010°14'7 8.8
2014-Oct-29 14:32N 54°31' E 010°23'80 7.3
2014-Oct-29 03:31N 54°46' E 012°40'25 7.8
2014-Oct-29 00:21N 54°56' E 013°19'13 6.9
2014-Oct-28 22:28N 55°01' E 013°40'7 7.0
2014-Oct-28 21:28N 55°04' E 013°51'7 7.4
2014-Oct-28 20:33N 55°07' E 014°02'7 7.1
2014-Oct-28 19:31N 55°11' E 014°12'7 7.0
2014-Oct-28 18:33N 55°16' E 014°21'7 7.0
2014-Oct-28 17:33N 55°21' E 014°29'7 6.9
2014-Oct-28 16:33N 55°26' E 014°38'8 7.6
2014-Oct-28 15:34N 55°26' E 014°52'8 8.3
2014-Oct-28 14:33N 55°27' E 015°06'8 8.0
2014-Oct-28 13:33N 55°27' E 015°20'9 7.4
2014-Oct-28 12:21N 55°28' E 015°36'  
2014-Oct-24 13:33N 58°38' E 017°05'9 9.5
2014-Oct-24 12:33N 58°37' E 016°47'9 9.3
2014-Oct-24 11:33N 58°39' E 016°30'9 8.6
2014-Oct-24 10:33N 58°37' E 016°14'1 0.4
2014-Oct-24 07:29N 58°36' E 016°12'0 0.0
2014-Oct-24 06:29N 58°36' E 016°12'0 0.0
2014-Oct-24 05:32N 58°36' E 016°12'0 0.0
2014-Oct-23 17:05N 58°36' E 016°11'  
Track history (hours):
 
Tides and Currents Weather Stations Pressure Air Temp Water Temp Dewpoint Dewpoint Depression Visibility Wind Speed Wind Dir Waves Ship Positions

Iberica Hav

Last reported at 2014-Nov-01 07:31 UTC. Time now 2014-Nov-01 07:39 UTC.
Position N 53°36' E 000°23'.

Length 88 m; draft 3.8 m.

Type: Cargo ship. MMSI: 311034400.

Date/timePositionNaut miles runAvg speedWind from/ knotsBaromVisibWave heightAir tempDewpointWater temp
2014-Nov-01 07:31N 53°36' E 000°23'0 0.2
2014-Nov-01 06:32N 53°36' E 000°23'0 0.0
2014-Nov-01 05:29N 53°36' E 000°23'0 0.0
2014-Nov-01 04:23N 53°36' E 000°23'0 0.0
2014-Nov-01 03:32N 53°36' E 000°23'0 0.0
2014-Nov-01 02:32N 53°36' E 000°23'0 0.0
2014-Nov-01 01:32N 53°36' E 000°23'0 0.0
2014-Nov-01 00:23N 53°36' E 000°23'0 0.1
2014-Oct-31 23:05N 53°36' E 000°23'0 0.0
2014-Oct-31 22:26N 53°36' E 000°23'0 0.0
2014-Oct-31 21:29N 53°36' E 000°23'0 0.0
2014-Oct-31 20:29N 53°36' E 000°23'0 0.1
2014-Oct-31 19:29N 53°36' E 000°23'4 3.8
2014-Oct-31 18:33N 53°35' E 000°28'165 8.1
2014-Oct-30 22:11N 53°49' E 005°05'5 7.4
2014-Oct-30 21:33N 53°49' E 005°13'8 7.6
2014-Oct-30 20:34N 53°50' E 005°26'8 8.3
2014-Oct-30 19:34N 53°50' E 005°40'67 8.3
2014-Oct-30 11:33N 53°60' E 007°32'8 7.6
2014-Oct-30 10:33N 54°01' E 007°45'8 8.3
2014-Oct-30 09:33N 54°01' E 007°59'9 9.1
2014-Oct-30 08:33N 54°01' E 008°15'1211.7
2014-Oct-30 07:33N 53°58' E 008°34'1211.5
2014-Oct-30 06:33N 53°51' E 008°49'10 9.9
2014-Oct-30 05:34N 53°53' E 009°05'2 2.4
2014-Oct-30 04:33N 53°54' E 009°09'5 5.5
2014-Oct-30 03:33N 53°58' E 009°15'9 8.5
2014-Oct-30 02:33N 54°06' E 009°20'8 7.7
2014-Oct-30 01:33N 54°11' E 009°29'7 7.4
2014-Oct-30 00:33N 54°16' E 009°38'8 7.9
2014-Oct-29 23:33N 54°22' E 009°48'7 6.8
2014-Oct-29 22:33N 54°21' E 009°59'6 5.0
2014-Oct-29 21:28N 54°22' E 010°08'1 1.1
2014-Oct-29 20:33N 54°22' E 010°10'0 0.0
2014-Oct-29 19:33N 54°22' E 010°10'0 0.0
2014-Oct-29 18:33N 54°22' E 010°10'0 0.1
2014-Oct-29 17:34N 54°22' E 010°10'0 0.1
2014-Oct-29 16:32N 54°22' E 010°10'5 4.2
2014-Oct-29 15:20N 54°27' E 010°14'7 8.8
2014-Oct-29 14:32N 54°31' E 010°23'80 7.3
2014-Oct-29 03:31N 54°46' E 012°40'25 7.8
2014-Oct-29 00:21N 54°56' E 013°19'13 6.9
2014-Oct-28 22:28N 55°01' E 013°40'7 7.0
2014-Oct-28 21:28N 55°04' E 013°51'7 7.4
2014-Oct-28 20:33N 55°07' E 014°02'7 7.1
2014-Oct-28 19:31N 55°11' E 014°12'7 7.0
2014-Oct-28 18:33N 55°16' E 014°21'7 7.0
2014-Oct-28 17:33N 55°21' E 014°29'7 6.9
2014-Oct-28 16:33N 55°26' E 014°38'8 7.6
2014-Oct-28 15:34N 55°26' E 014°52'8 8.3
2014-Oct-28 14:33N 55°27' E 015°06'8 8.0
2014-Oct-28 13:33N 55°27' E 015°20'9 7.4
2014-Oct-28 12:21N 55°28' E 015°36'  
2014-Oct-24 13:33N 58°38' E 017°05'9 9.5
2014-Oct-24 12:33N 58°37' E 016°47'9 9.3
2014-Oct-24 11:33N 58°39' E 016°30'9 8.6
2014-Oct-24 10:33N 58°37' E 016°14'1 0.4
2014-Oct-24 07:29N 58°36' E 016°12'0 0.0
2014-Oct-24 06:29N 58°36' E 016°12'0 0.0
2014-Oct-24 05:32N 58°36' E 016°12'0 0.0
2014-Oct-23 17:05N 58°36' E 016°11'  

Dump ship's entire track history